Canaan, Connecticut
Current Conditions -  °F | °C
As of 8:16 AM on Friday 31 Oct 2014 (Local Time) from KPSF Reporting Station
Moderate Fog Moderate Fog  
Wind Chill: 29°   Ceiling: 4100
Heat Index: 29°   Visibility: 0.5mi
Dew Point: 28°   Wind: 0mph
Humidity: 96%   Direction: NA
Pressure: 30.01"   Gusts: NA
Location:  42.03°N, 73.33°W
Report Text: KPSF 311216Z AUTO 00000KT 1/2SM FZFG SCT001 OVC041 M02/M02 A3001 RMK AO2 T10171022
Loading
Personal Weather Stations






























Interactive Weather Map
Tropical Storm Tracking
New forecast layout! Learn more

10-Day Weather Forecast

Advertisements
Track Severe Weather on mobile